Weather observations for the past three days for
Tanana, Calhoun Memorial Airport
Metric (Imperial)
Date Time (akdt) Wind (kph) Vis. (km) Weather Sky Cond. Temperature (ºC) Relative Humidity Wind Chill (°C) Heat Index (°C) Pressure Precipitation (cm)
Air Dwpt 6 hour altimeter (cm) sea level (mb) 1 hr 3 hr 6 hr
Max. Min.
08 07:52 Calm 16.09 Mostly Cloudy BKN070 0 -3.3 79% 75.87 1011.8
08 06:52 Calm 16.09 Partly Cloudy SCT070 0.6 -4.4 70% 75.87 1012.0
08 05:52 Calm 16.09 A Few Clouds FEW030 -1.7 -4.4 82% 75.92 1012.5
08 04:52 NE 9 16.09 A Few Clouds FEW033 -1.1 -4.4 79% -4 75.95 1012.9
08 03:52 Calm 16.09 Overcast OVC050 1.1 -3.9 3.3 0.6 70% 75.97 1013.4
08 02:52 NW 6 16.09 Overcast BKN044 OVC060 1.7 -5 61% 76 1013.7
08 01:52 Vrbl 6 16.09 Overcast OVC046 2.2 -6.1 55% 76.05 1014.3
08 00:52 NE 9 16.09 A Few Clouds FEW047 1.7 -6.7 54% -1 76.07 1014.6
07 23:52 N 6 16.09 A Few Clouds FEW050 1.1 -6.1 59% 76.1 1014.9
07 22:52 Calm 16.09 Fair CLR 2.8 -6.7 50% 76.12 1015.2
07 21:52 NW 9 16.09 Mostly Cloudy SCT070 BKN120 3.3 -6.1 5.6 2.8 51% 1 76.12 1015.3
07 20:52 Vrbl 6 16.09 Mostly Cloudy SCT065 BKN110 3.3 -4.4 57% 76.15 1015.6
07 19:52 W 9 16.09 Mostly Cloudy SCT070 BKN100 3.3 -3.9 60% 1 76.17 1015.9
07 18:52 W 11 16.09 Mostly Cloudy FEW070 BKN120 2.8 -3.3 65% 0 76.2 1016.3
07 17:52 W 11 16.09 Mostly Cloudy SCT075 BKN120 4.4 -5 51% 2 76.23 1016.5
07 16:52 W 7 16.09 Partly Cloudy SCT075 SCT120 5 -5 49% 4 76.25 1016.8
07 15:52 W 7 16.09 Mostly Cloudy SCT070 BKN090 5.6 -6.1 5.6 0.6 43% 4 76.28 1017.2
07 14:52 S 9 16.09 Mostly Cloudy BKN060 BKN070 3.9 -6.1 48% 2 76.3 1017.5
07 13:52 SW 6 16.09 Overcast OVC060 3.9 -7.2 45% 76.28 1017.3
07 12:52 W 6 16.09 Mostly Cloudy SCT055 BKN095 3.3 -7.8 44% 76.28 1017.4
07 11:52 W 7 16.09 Mostly Cloudy FEW055 BKN100 2.2 -6.7 52% 0 76.28 1017.6
07 10:52 Vrbl 6 16.09 A Few Clouds FEW060 2.8 -5 57% 76.28 1017.4
07 09:52 SW 9 16.09 Partly Cloudy SCT060 0.6 -5.6 1.1 -1.1 64% -2 76.3 1017.6
07 08:52 W 6 16.09 Overcast SCT045 OVC060 0.6 -6.7 58% 76.28 1017.3
07 07:52 NW 9 16.09 Overcast FEW047 OVC085 0 -7.8 56% -3 76.25 1017.1
07 06:52 Vrbl 6 16.09 Overcast FEW030 BKN050 OVC060 -1.1 -7.2 64% 76.23 1016.7
07 05:52 NW 6 16.09 Overcast OVC055 -1.1 -7.2 64% 76.23 1016.5
07 04:52 NW 6 16.09 Overcast OVC060 -1.1 -7.2 64% 76.2 1016.4
07 03:52 Calm 16.09 Overcast OVC060 -1.1 -7.8 1.1 -2.2 61% 76.2 1016.2
07 02:52 NW 7 16.09 Overcast OVC060 -1.1 -7.2 64% -3 76.2 1016.2
07 01:52 N 6 16.09 Overcast OVC065 -0.6 -8.3 56% 76.17 1015.8
07 00:52 NE 7 16.09 Overcast OVC065 -1.7 -7.8 63% -4 76.15 1015.6
06 23:52 Calm 16.09 Overcast OVC065 -1.1 -7.2 64% 76.12 1015.2
06 22:52 Calm 16.09 Mostly Cloudy BKN070 0 -7.2 59% 76.1 1015.0
06 21:52 W 6 16.09 Partly Cloudy SCT050 0.6 -6.7 6.1 0.6 58% 76.07 1014.5
06 20:52 W 11 16.09 Partly Cloudy SCT050 3.3 -10 37% 1 76.05 1014.2
06 19:52 W 9 16.09 Fair CLR 4.4 -10.6 33% 2 76.05 1014.1
06 18:52 W 9 16.09 A Few Clouds FEW060 5 -9.4 35% 3 76.02 1014.0
06 17:52 W 9 16.09 Partly Cloudy SCT050 5.6 -9.4 33% 4 76.02 1013.9
06 16:52 W 11 16.09 Partly Cloudy SCT070 5.6 -10 32% 3 76.02 1013.9
06 15:52 W 15 G 30 16.09 Mostly Cloudy BKN050 5.6 -8.3 5.6 1.1 36% 3 76.02 1013.9
06 14:52 SW 7 16.09 Mostly Cloudy BKN050 4.4 -8.3 40% 3 76.02 1013.8
06 13:52 W 9 16.09 Partly Cloudy SCT050 3.9 -7.2 45% 2 76.02 1013.8
06 12:52 SW 11 16.09 Partly Cloudy SCT050 2.8 -6.7 50% 0 76 1013.6
06 11:52 W 11 16.09 Partly Cloudy SCT045 2.8 -5.6 54% 0 75.97 1013.4
06 10:52 W 9 16.09 Fair CLR 2.2 -5 59% -0 75.97 1013.1
06 09:52 W 7 16.09 Mostly Cloudy BKN042 1.1 -6.1 1.1 -1.1 59% -1 75.95 1012.9
06 08:52 W 11 16.09 Mostly Cloudy BKN040 0 -5 69% -3 75.92 1012.6
06 07:52 W 9 16.09 A Few Clouds FEW040 -1.1 -3.9 82% -4 75.9 1012.1
06 06:52 Calm 16.09 Mostly Cloudy BKN041 -1.1 -3.3 85% 75.84 1011.5
06 05:52 NW 6 16.09 Fair CLR -1.1 -4.4 79% 75.79 1010.8
06 04:52 NW 6 16.09 Overcast BKN038 OVC049 0.6 -1.7 85% 75.74 1010.3
06 03:52 Calm 16.09 Overcast OVC045 0.6 -1.7 3.3 0.6 85% 75.72 1009.7
06 02:52 W 6 16.09 Overcast FEW050 OVC060 1.1 -1.1 85% 75.67 1009.1
06 01:52 W 6 16.09 Overcast OVC055 1.7 -1.1 82% 75.62 1008.6
06 00:52 W 7 16.09 Overcast OVC050 1.7 -1.1 82% -0 75.57 1008.0
05 23:52 W 9 16.09 Overcast OVC055 2.2 -0.6 82% -0 75.51 1007.2
05 22:52 W 9 16.09 Overcast OVC055 2.2 -0.6 82% -0 75.49 1006.9
05 21:52 Vrbl 9 16.09 Overcast OVC050 2.8 -0.6 7.2 2.8 79% 1 75.46 1006.3
05 20:52 W 7 16.09 Overcast OVC047 3.9 0 76% 2 75.41 1005.8
05 19:52 W 7 16.09 Overcast SCT037 BKN045 OVC085 3.9 0 76% 2 75.39 1005.5
05 18:52 W 7 16.09 Overcast FEW050 OVC075 5.6 -0.6 65% 4 75.36 1005.1
05 17:52 W 9 16.09 Overcast SCT031 OVC042 5.6 0 68% 4 75.34 1004.8
05 16:52 NW 11 16.09 Overcast FEW033 SCT048 OVC055 7.2 -0.6 58% 5 75.31 1004.5
05 15:52 N 9 16.09 Overcast SCT028 BKN036 OVC060 6.7 0 7.2 5 63% 5 75.29 1004.2
05 14:52 N 15 16.09 Overcast BKN025 OVC049 6.7 0 63% 4 75.26 1003.8
05 13:52 NW 13 16.09 Overcast FEW023 BKN045 OVC055 6.7 0.6 65% 4 75.23 1003.4
05 12:52 N 13 16.09 Mostly Cloudy SCT024 BKN046 6.7 0.6 65% 4 75.18 1002.8
05 11:52 N 13 16.09 Overcast OVC022 6.1 0.6 68% 4 75.16 1002.4
05 10:52 NW 13 16.09 Overcast OVC021 5 0.6 73% 2 75.13 1002.2
05 09:52 NW 17 16.09 Overcast OVC018 5 1.1 5 2.8 76% 2 75.11 1001.7
05 08:52 NW 17 16.09 Overcast OVC035 5 1.7 79% 2 75.08 1001.3
Date Time (akdt) Wind (kph) Vis. (km) Weather Sky Cond. Air Dwpt Max. Min. Relative Humidity Wind Chill (°C) Heat Index (°C) altimeter (cm) sea level (mb) 1 hr 3 hr 6 hr
6 hour
Temperature (ºC) Pressure Precipitation (cm)